Time;durP1;ratioP1;P1;durP2;ratioP2;P2;SDS_P1;SDS_P2;PMS_P1;PMS_P2;Temp;Humidity;BMP_temperature;BMP_pressure;BME280_temperature;BME280_humidity;BME280_pressure;Samples;Min_cycle;Max_cycle;Signal;HPM_P1;HPM_P2
2023/04/04 00:01:31;;;;;;;;;;;;;;;7.52;87.80;93206.19;5040565;23;19940;-75
2023/04/04 00:03:33;;;;;;;;;;;;;;;7.55;87.37;93205.81;5066397;23;19931;-75
2023/04/04 00:05:35;;;;;;;;;;;;;;;7.58;87.24;93201.09;5066856;23;19921;-78
2023/04/04 00:07:36;;;;;;;;;;;;;;;7.67;86.70;93214.03;5066808;23;19928;-77
2023/04/04 00:09:38;;;;;;;;;;;;;;;7.81;86.63;93205.44;5065992;23;19925;-76
2023/04/04 00:11:41;;;;;;;;;;;;;;;7.99;86.68;93205.88;5041124;23;19933;-75
2023/04/04 00:13:44;;;;;;;;;;;;;;;8.12;85.01;93207.84;5041451;23;19925;-78
2023/04/04 00:15:45;;;;;;;;;;;;;;;8.20;84.15;93204.34;5041133;23;20024;-76
2023/04/04 00:17:47;;;;;;;;;;;;;;;8.21;84.30;93211.19;5065220;23;20379;-76
2023/04/04 00:19:49;;;;;;;;;;;;;;;8.36;84.32;93213.78;5066550;23;19957;-81
2023/04/04 00:21:50;;;;;;;;;;;;;;;8.49;83.87;93207.94;5066721;23;19924;-77
2023/04/04 00:23:53;;;;;;;;;;;;;;;8.67;83.42;93204.94;5066783;23;19972;-78
2023/04/04 00:25:54;;;;;;;;;;;;;;;8.73;82.44;93207.63;5066264;23;20228;-76
2023/04/04 00:27:59;;;;;;;;;;;;;;;8.80;82.21;93197.25;5066315;23;19944;-76
2023/04/04 00:30:01;;;;;;;;;;;;;;;8.79;81.47;93193.00;5066001;23;20344;-78
2023/04/04 00:32:03;;;;;;;;;;;;;;;8.79;81.60;93193.81;5064690;23;19996;-76
2023/04/04 00:34:04;;;;;;;;;;;;;;;8.84;81.75;93187.22;5065660;23;19928;-75
2023/04/04 00:36:06;;;;;;;;;;;;;;;8.92;81.90;93174.88;5040102;23;19937;-78
2023/04/04 00:38:07;;;;;;;;;;;;;;;9.00;81.47;93179.97;5066823;23;19925;-77
2023/04/04 00:40:09;;;;;;;;;;;;;;;8.99;80.52;93178.38;5066160;23;20247;-79
2023/04/04 00:42:11;;;;;;;;;;;;;;;8.89;80.37;93183.09;5066322;23;19928;-80
2023/04/04 00:44:12;;;;;;;;;;;;;;;8.81;80.71;93175.34;5041338;23;19948;-80
2023/04/04 00:46:16;;;;;;;;;;;;;;;8.70;80.73;93179.25;5065577;23;19921;-78
2023/04/04 00:48:19;;;;;;;;;;;;;;;8.78;81.32;93176.53;5065702;23;20525;-76
2023/04/04 00:50:20;;;;;;;;;;;;;;;8.92;81.42;93161.81;5066243;23;19924;-76
2023/04/04 00:52:22;;;;;;;;;;;;;;;8.93;80.25;93163.44;5066826;23;19928;-78
2023/04/04 00:54:24;;;;;;;;;;;;;;;8.95;79.65;93163.25;5065349;23;19928;-76
2023/04/04 00:56:25;;;;;;;;;;;;;;;8.92;79.80;93163.63;5066114;23;19969;-78
2023/04/04 00:58:27;;;;;;;;;;;;;;;8.94;79.72;93159.81;5066571;23;20248;-77
2023/04/04 01:00:28;;;;;;;;;;;;;;;8.99;79.52;93162.69;5039697;23;19978;-77
2023/04/04 01:02:30;;;;;;;;;;;;;;;9.11;79.41;93164.81;5040079;23;19958;-77
2023/04/04 01:04:32;;;;;;;;;;;;;;;9.13;78.92;93168.84;5040893;23;20009;-78
2023/04/04 01:06:34;;;;;;;;;;;;;;;9.09;79.12;93172.00;5066318;23;19925;-77
2023/04/04 01:08:36;;;;;;;;;;;;;;;9.11;79.22;93181.28;5040833;23;19928;-78
2023/04/04 01:10:38;;;;;;;;;;;;;;;9.06;78.46;93182.84;5065958;23;20368;-76
2023/04/04 01:12:40;;;;;;;;;;;;;;;9.06;79.11;93185.47;5066383;23;19925;-77
2023/04/04 01:14:42;;;;;;;;;;;;;;;9.03;78.75;93194.44;5065153;23;19924;-77
2023/04/04 01:16:43;;;;;;;;;;;;;;;8.95;79.07;93187.56;5066098;23;19928;-76
2023/04/04 01:18:45;;;;;;;;;;;;;;;8.86;79.14;93193.88;5039571;23;20312;-77
2023/04/04 01:20:57;;;;;;;;;;;;;;;8.73;79.15;93193.75;5065675;23;19928;-75
2023/04/04 01:22:58;;;;;;;;;;;;;;;8.79;80.41;93199.03;5040503;23;19925;-75
2023/04/04 01:25:00;;;;;;;;;;;;;;;8.87;80.44;93189.50;5039918;23;19967;-77
2023/04/04 01:27:02;;;;;;;;;;;;;;;8.97;80.13;93192.59;5066001;23;20619;-75
2023/04/04 01:29:03;;;;;;;;;;;;;;;8.99;79.67;93194.03;5065980;23;19929;-74
2023/04/04 01:31:05;;;;;;;;;;;;;;;9.05;79.77;93189.06;5064894;23;19920;-77
2023/04/04 01:33:09;;;;;;;;;;;;;;;9.07;79.42;93192.28;5038768;23;19932;-78
2023/04/04 01:35:43;;;;;;;;;;;;;;;9.12;79.31;93188.13;5066500;23;19961;-77
2023/04/04 01:38:04;;;;;;;;;;;;;;;9.16;80.05;93173.69;5008858;23;19966;-77
2023/04/04 01:40:16;;;;;;;;;;;;;;;9.26;78.98;93178.59;5065209;23;20012;-77
2023/04/04 01:42:18;;;;;;;;;;;;;;;9.23;78.64;93179.78;5040143;23;19932;-77
2023/04/04 01:44:20;;;;;;;;;;;;;;;9.18;78.55;93169.09;5040198;23;19929;-77
2023/04/04 01:46:22;;;;;;;;;;;;;;;9.17;78.48;93170.06;5066252;23;19928;-77
2023/04/04 01:48:23;;;;;;;;;;;;;;;9.10;78.28;93166.59;5014484;23;20399;-79
2023/04/04 01:50:25;;;;;;;;;;;;;;;9.21;78.09;93157.47;5064694;23;19921;-79
2023/04/04 01:52:28;;;;;;;;;;;;;;;9.31;78.22;93152.69;5065632;23;20011;-76
2023/04/04 01:54:31;;;;;;;;;;;;;;;9.34;76.72;93149.72;5065617;23;19921;-77
2023/04/04 01:56:32;;;;;;;;;;;;;;;9.17;77.04;93143.16;5066147;23;19921;-76
2023/04/04 01:58:34;;;;;;;;;;;;;;;9.12;77.32;93146.34;5065699;23;19921;-77
2023/04/04 02:00:36;;;;;;;;;;;;;;;9.14;77.72;93141.72;5038797;23;19921;-76
2023/04/04 02:02:37;;;;;;;;;;;;;;;9.19;78.18;93143.78;5065175;23;19921;-77
2023/04/04 02:04:39;;;;;;;;;;;;;;;9.28;77.40;93140.00;5066202;23;20264;-77
2023/04/04 02:06:41;;;;;;;;;;;;;;;9.32;76.52;93145.69;5065331;23;19928;-77
2023/04/04 02:08:42;;;;;;;;;;;;;;;9.24;76.23;93146.63;5065602;23;19992;-77
2023/04/04 02:10:44;;;;;;;;;;;;;;;9.20;76.48;93148.00;5065530;23;19925;-77
2023/04/04 02:12:46;;;;;;;;;;;;;;;9.25;76.23;93150.03;5040352;23;19956;-76
2023/04/04 02:14:48;;;;;;;;;;;;;;;9.19;76.92;93151.59;5065063;23;19928;-77
2023/04/04 02:16:50;;;;;;;;;;;;;;;9.32;77.24;93148.28;5064769;23;19925;-77
2023/04/04 02:18:51;;;;;;;;;;;;;;;9.30;75.98;93145.06;5065494;23;20000;-77
2023/04/04 02:20:56;;;;;;;;;;;;;;;9.25;76.48;93136.97;5065200;23;19956;-75
2023/04/04 02:22:58;;;;;;;;;;;;;;;9.21;76.62;93144.41;5039947;23;19925;-77
2023/04/04 02:25:01;;;;;;;;;;;;;;;9.24;77.24;93138.78;5066258;23;19921;-77
2023/04/04 02:27:03;;;;;;;;;;;;;;;9.31;77.54;93134.41;5065380;23;19931;-77
2023/04/04 02:29:05;;;;;;;;;;;;;;;9.32;75.93;93138.66;5065638;23;19925;-76
2023/04/04 02:31:06;;;;;;;;;;;;;;;9.26;76.22;93135.97;5064892;23;19959;-77
2023/04/04 02:33:08;;;;;;;;;;;;;;;9.26;75.99;93138.59;5063228;23;20000;-76
2023/04/04 02:35:09;;;;;;;;;;;;;;;9.23;76.50;93134.56;5064503;23;19921;-77
2023/04/04 02:37:11;;;;;;;;;;;;;;;9.18;76.30;93140.34;5065480;23;19925;-77
2023/04/04 02:39:12;;;;;;;;;;;;;;;9.24;77.04;93138.78;5065248;23;20289;-72
2023/04/04 02:41:14;;;;;;;;;;;;;;;9.33;76.26;93148.09;5039375;23;19927;-72
2023/04/04 02:43:15;;;;;;;;;;;;;;;9.28;75.10;93134.00;5064694;23;20357;-73
2023/04/04 02:45:17;;;;;;;;;;;;;;;9.25;75.20;93143.03;5064856;23;19921;-72
2023/04/04 02:47:18;;;;;;;;;;;;;;;9.17;75.85;93148.38;5063939;23;20322;-72
2023/04/04 02:49:20;;;;;;;;;;;;;;;9.14;75.76;93151.34;5065361;23;19921;-74
2023/04/04 02:51:21;;;;;;;;;;;;;;;9.20;76.27;93145.38;5065117;23;20316;-73
2023/04/04 02:53:23;;;;;;;;;;;;;;;9.28;76.03;93149.66;5065276;23;19925;-72
2023/04/04 02:55:25;;;;;;;;;;;;;;;9.33;75.91;93144.66;5065068;23;19921;-73
2023/04/04 02:57:27;;;;;;;;;;;;;;;9.25;74.58;93148.25;5065047;23;19925;-71
2023/04/04 02:59:28;;;;;;;;;;;;;;;9.28;74.33;93150.47;5037926;23;20428;-73
2023/04/04 03:01:31;;;;;;;;;;;;;;;9.33;74.46;93150.69;5064812;23;19977;-71
2023/04/04 03:03:32;;;;;;;;;;;;;;;9.39;74.86;93155.16;5063819;23;19921;-72
2023/04/04 03:05:34;;;;;;;;;;;;;;;9.49;74.47;93154.06;5065364;23;19921;-73
2023/04/04 03:07:36;;;;;;;;;;;;;;;9.47;73.56;93156.84;5039106;23;19921;-73
2023/04/04 03:09:37;;;;;;;;;;;;;;;9.47;73.53;93159.47;5064957;23;19981;-73
2023/04/04 03:11:39;;;;;;;;;;;;;;;9.41;72.97;93165.44;5064511;23;19924;-72
2023/04/04 03:13:40;;;;;;;;;;;;;;;9.45;72.93;93165.88;5064804;23;19996;-73
2023/04/04 03:15:42;;;;;;;;;;;;;;;9.50;73.38;93160.88;5038973;23;20323;-73
2023/04/04 03:17:47;;;;;;;;;;;;;;;9.73;79.54;93166.69;5062966;23;19927;-72
2023/04/04 03:19:49;;;;;;;;;;;;;;;9.95;81.72;93158.75;5064460;23;19945;-73
2023/04/04 03:21:50;;;;;;;;;;;;;;;9.97;80.81;93164.63;5065326;23;19972;-74
2023/04/04 03:23:52;;;;;;;;;;;;;;;9.86;77.35;93157.31;5039074;23;19944;-73
2023/04/04 03:25:54;;;;;;;;;;;;;;;9.78;75.80;93160.88;5064680;23;19921;-72
2023/04/04 03:27:55;;;;;;;;;;;;;;;9.63;76.51;93159.16;5015743;23;19922;-72
2023/04/04 03:29:58;;;;;;;;;;;;;;;9.31;76.42;93157.13;5038603;23;19957;-73
2023/04/04 03:31:59;;;;;;;;;;;;;;;9.59;85.63;93164.97;5038947;23;19952;-70
2023/04/04 03:34:01;;;;;;;;;;;;;;;9.96;88.24;93169.03;5038462;23;19925;-72
2023/04/04 03:36:09;;;;;;;;;;;;;;;10.20;88.31;93157.28;5038815;23;19937;-71
2023/04/04 03:38:11;;;;;;;;;;;;;;;10.47;89.40;93165.28;5038819;23;19925;-72
2023/04/04 03:40:13;;;;;;;;;;;;;;;10.57;87.95;93165.72;5064159;23;19980;-73
2023/04/04 03:42:15;;;;;;;;;;;;;;;10.54;84.91;93165.28;5064637;23;19976;-73
2023/04/04 03:44:17;;;;;;;;;;;;;;;10.60;86.28;93164.50;5064342;23;19921;-75
2023/04/04 03:46:18;;;;;;;;;;;;;;;10.72;87.20;93157.69;5065538;23;19943;-73
2023/04/04 03:48:20;;;;;;;;;;;;;;;10.65;83.35;93162.13;5063575;23;19972;-73
2023/04/04 03:50:21;;;;;;;;;;;;;;;10.70;85.09;93161.53;5064729;23;19959;-72
2023/04/04 03:52:23;;;;;;;;;;;;;;;10.81;86.34;93168.81;5039495;23;19987;-71
2023/04/04 03:54:26;;;;;;;;;;;;;;;10.70;81.17;93161.53;5064857;23;20288;-73
2023/04/04 03:56:29;;;;;;;;;;;;;;;10.26;75.83;93158.31;5065337;23;20237;-74
2023/04/04 03:58:30;;;;;;;;;;;;;;;10.04;75.72;93170.69;5065073;23;20344;-72
2023/04/04 04:00:32;;;;;;;;;;;;;;;10.11;80.31;93161.06;5064043;23;19976;-77
2023/04/04 04:02:33;;;;;;;;;;;;;;;10.36;85.10;93161.41;5064027;23;19929;-73
2023/04/04 04:04:35;;;;;;;;;;;;;;;10.57;87.37;93157.84;5038689;23;20316;-73
2023/04/04 04:06:37;;;;;;;;;;;;;;;10.73;86.46;93161.94;5064328;23;19921;-73
2023/04/04 04:08:38;;;;;;;;;;;;;;;10.72;84.52;93162.94;5039050;23;19927;-77
2023/04/04 04:10:40;;;;;;;;;;;;;;;10.69;83.34;93160.72;5039114;23;19925;-72
2023/04/04 04:12:42;;;;;;;;;;;;;;;10.70;81.42;93164.16;5065685;23;20317;-74
2023/04/04 04:14:43;;;;;;;;;;;;;;;10.70;80.88;93164.16;5064619;23;19921;-79
2023/04/04 04:16:45;;;;;;;;;;;;;;;10.62;77.55;93167.75;5065614;23;20288;-75
2023/04/04 04:18:46;;;;;;;;;;;;;;;10.55;75.71;93162.47;5064916;23;19972;-73
2023/04/04 04:20:48;;;;;;;;;;;;;;;10.48;75.08;93169.50;5066057;23;19921;-73
2023/04/04 04:22:50;;;;;;;;;;;;;;;10.27;73.09;93165.16;5065341;23;19921;-75
2023/04/04 04:24:54;;;;;;;;;;;;;;;10.09;73.50;93170.94;5065471;23;20000;-73
2023/04/04 04:26:56;;;;;;;;;;;;;;;10.05;74.89;93172.31;5040215;23;19921;-73
2023/04/04 04:28:58;;;;;;;;;;;;;;;10.03;74.63;93177.72;5066000;23;20380;-76
2023/04/04 04:31:06;;;;;;;;;;;;;;;10.01;74.69;93181.53;5064876;23;19973;-72
2023/04/04 04:33:08;;;;;;;;;;;;;;;9.96;74.04;93181.28;5039879;23;19952;-73
2023/04/04 04:35:09;;;;;;;;;;;;;;;9.93;73.76;93192.94;5067751;23;19921;-81
2023/04/04 04:37:11;;;;;;;;;;;;;;;9.90;74.20;93188.13;5070165;23;19973;-79
2023/04/04 04:39:13;;;;;;;;;;;;;;;9.93;75.00;93187.72;5069443;23;19945;-82
2023/04/04 04:41:14;;;;;;;;;;;;;;;9.99;74.21;93191.38;5070471;23;19921;-81
2023/04/04 04:43:16;;;;;;;;;;;;;;;10.00;73.50;93198.22;5068330;23;20272;-77
2023/04/04 04:45:17;;;;;;;;;;;;;;;10.00;73.67;93200.84;5068392;23;19921;-82
2023/04/04 04:47:19;;;;;;;;;;;;;;;10.00;73.66;93201.66;5068608;23;19921;-80
2023/04/04 04:49:21;;;;;;;;;;;;;;;10.00;73.60;93201.66;5069189;23;19968;-78
2023/04/04 04:51:22;;;;;;;;;;;;;;;10.01;73.91;93207.69;5068753;23;19931;-79
2023/04/04 04:53:24;;;;;;;;;;;;;;;10.01;73.42;93208.50;5070020;23;19921;-80
2023/04/04 04:55:26;;;;;;;;;;;;;;;10.02;73.82;93209.31;5069269;23;19929;-80
2023/04/04 04:57:28;;;;;;;;;;;;;;;9.71;73.52;93217.56;5068798;23;19985;-83
2023/04/04 04:59:29;;;;;;;;;;;;;;;9.47;75.02;93216.97;5069556;23;19921;-78
2023/04/04 05:01:31;;;;;;;;;;;;;;;9.46;75.34;93219.75;5068906;23;19921;-79
2023/04/04 05:03:33;;;;;;;;;;;;;;;9.53;75.99;93215.38;5068509;23;19921;-80
2023/04/04 05:05:35;;;;;;;;;;;;;;;9.29;76.13;93224.44;5044886;23;19929;-83
2023/04/04 05:07:36;;;;;;;;;;;;;;;9.26;76.71;93227.44;5072106;23;19921;-81
2023/04/04 05:09:38;;;;;;;;;;;;;;;9.33;76.42;93229.09;5070242;23;19924;-80
2023/04/04 05:11:40;;;;;;;;;;;;;;;9.46;76.48;93220.56;5070014;23;19921;-81
2023/04/04 05:13:41;;;;;;;;;;;;;;;9.46;76.34;93225.78;5045647;23;19932;-80
2023/04/04 05:15:45;;;;;;;;;;;;;;;9.50;76.29;93224.44;5069523;23;20212;-80
2023/04/04 05:17:46;;;;;;;;;;;;;;;9.60;76.14;93229.34;5020997;23;19921;-79
2023/04/04 05:19:48;;;;;;;;;;;;;;;9.61;75.36;93234.41;5069386;23;19924;-80
2023/04/04 05:21:50;;;;;;;;;;;;;;;9.64;75.28;93239.22;5070477;23;19965;-72
2023/04/04 05:23:51;;;;;;;;;;;;;;;9.67;75.02;93238.03;5067597;23;19921;-73
2023/04/04 05:25:53;;;;;;;;;;;;;;;9.68;75.00;93237.06;5066185;23;19976;-75
2023/04/04 05:27:56;;;;;;;;;;;;;;;9.76;75.05;93241.31;5040871;23;19921;-74
2023/04/04 05:29:58;;;;;;;;;;;;;;;9.81;75.30;93239.78;5066000;23;19949;-76
2023/04/04 05:31:59;;;;;;;;;;;;;;;9.94;75.53;93248.72;5065602;23;19956;-75
2023/04/04 05:34:06;;;;;;;;;;;;;;;10.01;73.97;93249.56;5066611;23;19932;-74
2023/04/04 05:36:10;;;;;;;;;;;;;;;10.07;74.07;93243.56;5066087;23;19921;-73
2023/04/04 05:38:12;;;;;;;;;;;;;;;10.04;74.11;93239.53;5065389;23;19924;-74
2023/04/04 05:40:13;;;;;;;;;;;;;;;10.10;74.61;93248.41;5040669;23;19925;-75
2023/04/04 05:42:15;;;;;;;;;;;;;;;10.22;74.40;93246.88;5065330;23;19948;-74
2023/04/04 05:44:17;;;;;;;;;;;;;;;10.21;73.30;93250.47;5066068;23;19921;-74
2023/04/04 05:46:18;;;;;;;;;;;;;;;10.13;74.28;93244.59;5066030;23;19921;-76
2023/04/04 05:48:20;;;;;;;;;;;;;;;10.16;74.05;93254.69;5064548;23;20051;-74
2023/04/04 05:50:21;;;;;;;;;;;;;;;9.81;74.80;93260.69;5066165;23;19929;-74
2023/04/04 05:52:23;;;;;;;;;;;;;;;9.77;75.70;93256.84;5065620;23;19928;-73
2023/04/04 05:54:25;;;;;;;;;;;;;;;9.77;75.90;93256.84;5065787;23;19921;-75
2023/04/04 05:56:27;;;;;;;;;;;;;;;9.84;75.12;93260.31;5040207;23;19925;-74
2023/04/04 05:58:29;;;;;;;;;;;;;;;9.95;74.94;93258.97;5065563;23;19992;-74
2023/04/04 06:00:31;;;;;;;;;;;;;;;9.91;75.29;93256.94;5065900;23;20399;-74
2023/04/04 06:02:32;;;;;;;;;;;;;;;9.89;74.95;93257.13;5065089;23;19956;-75
2023/04/04 06:04:34;;;;;;;;;;;;;;;9.91;74.74;93267.38;5066955;23;19984;-73
2023/04/04 06:06:36;;;;;;;;;;;;;;;9.91;74.82;93265.56;5066981;23;19927;-79
2023/04/04 06:08:37;;;;;;;;;;;;;;;10.05;74.79;93264.69;5068846;23;19921;-80
2023/04/04 06:10:54;;;;;;;;;;;;;;;10.13;73.90;93262.91;5045860;23;19925;-81
2023/04/04 06:12:56;;;;;;;;;;;;;;;10.23;74.33;93258.94;5068388;23;19921;-80
2023/04/04 06:14:57;;;;;;;;;;;;;;;10.15;73.94;93268.75;5019487;23;19958;-80
2023/04/04 06:16:59;;;;;;;;;;;;;;;9.94;74.80;93265.22;5069358;23;19928;-82
2023/04/04 06:19:01;;;;;;;;;;;;;;;9.96;74.70;93271.06;5045624;23;19925;-79
2023/04/04 06:21:02;;;;;;;;;;;;;;;10.00;74.34;93274.09;5044784;23;19929;-80
2023/04/04 06:23:04;;;;;;;;;;;;;;;9.96;74.68;93278.91;5071667;23;19921;-79
2023/04/04 06:25:09;;;;;;;;;;;;;;;9.84;75.79;93275.19;5068997;23;19936;-81
2023/04/04 06:27:10;;;;;;;;;;;;;;;9.92;75.96;93272.44;5069482;23;19954;-79
2023/04/04 06:29:12;;;;;;;;;;;;;;;9.45;77.57;93273.84;5042072;23;19926;-78
2023/04/04 06:31:13;;;;;;;;;;;;;;;9.26;78.36;93277.09;5069438;23;20462;-81
2023/04/04 06:33:15;;;;;;;;;;;;;;;9.01;78.87;93288.69;5066707;23;20000;-76
2023/04/04 06:35:17;;;;;;;;;;;;;;;8.62;79.60;93296.84;5043184;23;19957;-80
2023/04/04 06:37:20;;;;;;;;;;;;;;;8.17;79.47;93309.88;5067824;23;19931;-79
2023/04/04 06:39:22;;;;;;;;;;;;;;;7.92;78.72;93316.31;5068274;23;20292;-80
2023/04/04 06:41:23;;;;;;;;;;;;;;;7.65;79.73;93320.25;5068377;23;19921;-83
2023/04/04 06:43:25;;;;;;;;;;;;;;;7.36;79.17;93330.41;5041568;23;19921;-78
2023/04/04 06:45:27;;;;;;;;;;;;;;;6.82;78.54;93351.22;5042283;23;20320;-80
2023/04/04 06:47:29;;;;;;;;;;;;;;;6.29;79.47;93352.66;5068276;23;19921;-80
2023/04/04 06:49:30;;;;;;;;;;;;;;;5.79;79.77;93366.69;5069036;23;19928;-77
2023/04/04 06:51:32;;;;;;;;;;;;;;;5.56;79.49;93350.91;5069143;23;19976;-79
2023/04/04 06:53:34;;;;;;;;;;;;;;;5.41;79.27;93355.94;5067750;23;19925;-83
2023/04/04 06:55:35;;;;;;;;;;;;;;;5.54;80.70;93351.06;5069095;23;19949;-79
2023/04/04 06:57:38;;;;;;;;;;;;;;;5.49;78.94;93353.34;5073866;23;19925;-80
2023/04/04 06:59:40;;;;;;;;;;;;;;;5.31;78.45;93362.09;5043110;23;20301;-77
2023/04/04 07:01:44;;;;;;;;;;;;;;;5.39;78.56;93369.06;5067405;23;19931;-79
2023/04/04 07:03:45;;;;;;;;;;;;;;;5.19;77.90;93381.53;5067940;23;20008;-79
2023/04/04 07:05:47;;;;;;;;;;;;;;;5.52;77.40;93382.38;5068646;23;19941;-78
2023/04/04 07:07:51;;;;;;;;;;;;;;;5.06;77.32;93396.75;5043553;23;19921;-78
2023/04/04 07:09:53;;;;;;;;;;;;;;;5.08;77.01;93415.56;5070122;23;20224;-82
2023/04/04 07:11:54;;;;;;;;;;;;;;;5.14;77.12;93409.72;5067998;23;19925;-79
2023/04/04 07:13:56;;;;;;;;;;;;;;;5.08;77.91;93400.81;5069181;23;19921;-79
2023/04/04 07:15:57;;;;;;;;;;;;;;;5.34;77.31;93416.28;5073765;23;19928;-80
2023/04/04 07:17:59;;;;;;;;;;;;;;;5.22;75.06;93427.13;5071327;23;20077;-80
2023/04/04 07:20:01;;;;;;;;;;;;;;;5.02;76.09;93424.78;5070860;23;19921;-80
2023/04/04 07:22:05;;;;;;;;;;;;;;;4.99;75.75;93432.91;5044402;23;19921;-80
2023/04/04 07:24:06;;;;;;;;;;;;;;;4.84;74.71;93445.66;5069268;23;19925;-81
2023/04/04 07:26:08;;;;;;;;;;;;;;;5.03;75.68;93441.97;5043305;23;19925;-80
2023/04/04 07:28:10;;;;;;;;;;;;;;;5.16;75.09;93453.72;5069193;23;19969;-79
2023/04/04 07:30:14;;;;;;;;;;;;;;;5.41;73.58;93454.63;5066781;23;20088;-73
2023/04/04 07:32:16;;;;;;;;;;;;;;;5.48;72.94;93456.41;5063433;23;20552;-74
2023/04/04 07:34:18;;;;;;;;;;;;;;;5.65;72.53;93461.66;5065813;23;19977;-73
2023/04/04 07:36:20;;;;;;;;;;;;;;;5.11;73.42;93467.97;5065938;23;19933;-75
2023/04/04 07:38:21;;;;;;;;;;;;;;;5.17;73.33;93471.75;5015867;23;19953;-72
2023/04/04 07:40:23;;;;;;;;;;;;;;;5.26;73.82;93476.00;5064588;23;19932;-74
2023/04/04 07:42:25;;;;;;;;;;;;;;;5.42;72.34;93474.41;5065498;23;20023;-72
2023/04/04 07:44:27;;;;;;;;;;;;;;;5.63;72.33;93476.59;5065744;23;19961;-71
2023/04/04 07:46:28;;;;;;;;;;;;;;;5.70;71.09;93478.41;5040588;23;19922;-74
2023/04/04 07:48:30;;;;;;;;;;;;;;;5.88;71.53;93478.25;5064997;23;19920;-73
2023/04/04 07:50:32;;;;;;;;;;;;;;;6.05;70.59;93471.31;5065736;23;20237;-75
2023/04/04 07:52:33;;;;;;;;;;;;;;;6.04;69.90;93476.69;5065137;23;19924;-74
2023/04/04 07:54:35;;;;;;;;;;;;;;;6.11;70.14;93478.47;5065371;23;19921;-74
2023/04/04 07:56:36;;;;;;;;;;;;;;;6.04;69.51;93474.09;5064900;23;19977;-72
2023/04/04 07:58:38;;;;;;;;;;;;;;;5.95;69.28;93470.66;5065778;23;19955;-74
2023/04/04 08:00:39;;;;;;;;;;;;;;;5.57;71.50;93493.63;5064710;23;20284;-73
2023/04/04 08:02:42;;;;;;;;;;;;;;;5.44;70.42;93501.03;5063916;23;20341;-74
2023/04/04 08:04:44;;;;;;;;;;;;;;;5.55;69.96;93498.19;5065747;23;19925;-74
2023/04/04 08:06:46;;;;;;;;;;;;;;;5.72;69.84;93493.81;5065693;23;19931;-71
2023/04/04 08:08:48;;;;;;;;;;;;;;;5.63;69.30;93502.56;5066790;23;19924;-74
2023/04/04 08:10:50;;;;;;;;;;;;;;;5.44;69.87;93508.84;5066261;23;20352;-73
2023/04/04 08:12:52;;;;;;;;;;;;;;;5.59;69.57;93504.66;5041647;23;19921;-72
2023/04/04 08:14:53;;;;;;;;;;;;;;;5.71;69.19;93508.59;5065277;23;19973;-74
2023/04/04 08:16:55;;;;;;;;;;;;;;;5.95;68.50;93514.84;5040464;23;20175;-73
2023/04/04 08:18:57;;;;;;;;;;;;;;;5.81;68.30;93523.22;5042017;23;19921;-74
2023/04/04 08:21:00;;;;;;;;;;;;;;;5.42;69.50;93518.56;5041305;23;19932;-73
2023/04/04 08:23:02;;;;;;;;;;;;;;;5.51;69.80;93525.44;5066907;23;20446;-74
2023/04/04 08:25:04;;;;;;;;;;;;;;;5.59;69.64;93525.44;5066917;23;19924;-75
2023/04/04 08:27:06;;;;;;;;;;;;;;;5.79;69.93;93530.41;5041257;23;19921;-74
2023/04/04 08:29:07;;;;;;;;;;;;;;;5.59;69.45;93530.63;5066782;23;20180;-74
2023/04/04 08:31:11;;;;;;;;;;;;;;;5.69;68.98;93546.91;5065017;23;19921;-72
2023/04/04 08:33:12;;;;;;;;;;;;;;;5.68;67.69;93529.72;5038001;23;19921;-73
2023/04/04 08:35:14;;;;;;;;;;;;;;;5.73;67.97;93537.03;5066755;23;19921;-74
2023/04/04 08:37:16;;;;;;;;;;;;;;;5.82;67.67;93545.66;5067252;23;19921;-74
2023/04/04 08:39:18;;;;;;;;;;;;;;;5.77;67.07;93551.34;5041002;23;19921;-72
2023/04/04 08:41:19;;;;;;;;;;;;;;;5.78;67.30;93545.16;5067743;23;19921;-75
2023/04/04 08:43:21;;;;;;;;;;;;;;;5.80;67.32;93539.81;5039578;23;20010;-78
2023/04/04 08:45:22;;;;;;;;;;;;;;;5.74;66.61;93542.09;5016795;23;20401;-74
2023/04/04 08:47:24;;;;;;;;;;;;;;;5.80;67.31;93547.59;5065315;23;20343;-76
2023/04/04 08:49:26;;;;;;;;;;;;;;;5.64;67.13;93553.56;5017904;23;19993;-76
2023/04/04 08:51:28;;;;;;;;;;;;;;;5.54;66.04;93557.09;5041944;23;19951;-72
2023/04/04 08:53:31;;;;;;;;;;;;;;;5.54;66.97;93548.50;5041673;23;19921;-75
2023/04/04 08:55:32;;;;;;;;;;;;;;;5.59;66.64;93564.41;5041444;23;19921;-73
2023/04/04 08:57:34;;;;;;;;;;;;;;;5.67;67.10;93569.66;5066245;23;19929;-74
2023/04/04 08:59:36;;;;;;;;;;;;;;;5.67;66.63;93566.25;5066167;23;19932;-74
2023/04/04 09:01:38;;;;;;;;;;;;;;;5.82;66.65;93566.44;5066259;23;19921;-73
2023/04/04 09:03:39;;;;;;;;;;;;;;;5.82;65.79;93569.06;5041614;23;19925;-72
2023/04/04 09:05:42;;;;;;;;;;;;;;;5.73;65.42;93552.63;5066926;23;19925;-74
2023/04/04 09:07:44;;;;;;;;;;;;;;;5.34;66.08;93573.91;5067211;23;20283;-76
2023/04/04 09:09:45;;;;;;;;;;;;;;;5.37;66.47;93570.97;5041091;23;19925;-70
2023/04/04 09:11:47;;;;;;;;;;;;;;;5.53;65.50;93578.06;5040976;23;19928;-73
2023/04/04 09:13:49;;;;;;;;;;;;;;;5.62;65.33;93577.09;5066958;23;19941;-72
2023/04/04 09:15:56;;;;;;;;;;;;;;;5.78;65.07;93580.72;5040968;23;19921;-70
2023/04/04 09:17:57;;;;;;;;;;;;;;;5.82;64.75;93571.66;5040755;23;19986;-73
2023/04/04 09:20:05;;;;;;;;;;;;;;;5.67;64.46;93576.63;5067277;23;19924;-71
2023/04/04 09:22:07;;;;;;;;;;;;;;;5.61;65.22;93578.06;5067307;23;19921;-73
2023/04/04 09:24:09;;;;;;;;;;;;;;;5.78;65.05;93578.94;5067003;23;20000;-74
2023/04/04 09:26:12;;;;;;;;;;;;;;;5.77;63.88;93582.53;5066898;23;20007;-73
2023/04/04 09:28:14;;;;;;;;;;;;;;;5.91;63.94;93581.91;5066731;23;19921;-71
2023/04/04 09:30:16;;;;;;;;;;;;;;;5.67;63.47;93587.84;5065859;23;19921;-73
2023/04/04 09:32:17;;;;;;;;;;;;;;;5.56;63.75;93588.13;5040192;23;19921;-73
2023/04/04 09:34:19;;;;;;;;;;;;;;;5.51;64.03;93587.78;5039546;23;20001;-72
2023/04/04 09:36:21;;;;;;;;;;;;;;;5.58;64.91;93588.78;5067113;23;19921;-73
2023/04/04 09:38:23;;;;;;;;;;;;;;;5.50;64.74;93594.75;5066960;23;20173;-75
2023/04/04 09:40:26;;;;;;;;;;;;;;;5.44;65.08;93589.34;5040961;23;19932;-75
2023/04/04 09:42:28;;;;;;;;;;;;;;;5.61;64.42;93590.25;5040461;23;19997;-76
2023/04/04 09:44:32;;;;;;;;;;;;;;;5.54;64.70;93596.06;5065482;23;19921;-75
2023/04/04 09:46:37;;;;;;;;;;;;;;;5.36;64.73;93597.13;5066451;23;19925;-73
2023/04/04 09:48:38;;;;;;;;;;;;;;;5.52;65.01;93592.00;5066339;23;19920;-74
2023/04/04 09:50:46;;;;;;;;;;;;;;;5.75;64.75;93603.47;5066467;23;20023;-76
2023/04/04 09:52:48;;;;;;;;;;;;;;;5.54;63.95;93596.06;5066773;23;19921;-78
2023/04/04 09:55:00;;;;;;;;;;;;;;;5.57;64.47;93605.34;5066696;23;19921;-76
2023/04/04 09:57:01;;;;;;;;;;;;;;;5.58;64.11;93596.56;5066656;23;20008;-76
2023/04/04 09:59:03;;;;;;;;;;;;;;;5.55;63.60;93599.50;5040684;23;20260;-74
2023/04/04 10:01:08;;;;;;;;;;;;;;;5.32;63.70;93596.59;5039838;23;19925;-74
2023/04/04 10:03:11;;;;;;;;;;;;;;;5.17;64.61;93592.97;5066464;23;20272;-74
2023/04/04 10:05:13;;;;;;;;;;;;;;;5.28;64.04;93587.50;5041066;23;20005;-73
2023/04/04 10:07:14;;;;;;;;;;;;;;;5.37;64.36;93594.34;5040729;23;19925;-75
2023/04/04 10:09:16;;;;;;;;;;;;;;;5.53;63.92;93584.06;5040254;23;19925;-77
2023/04/04 10:11:28;;;;;;;;;;;;;;;5.49;64.36;93593.13;5067508;23;19921;-74
2023/04/04 10:13:31;;;;;;;;;;;;;;;5.62;64.03;93600.50;5041049;23;19925;-75
2023/04/04 10:15:37;;;;;;;;;;;;;;;5.55;62.87;93615.09;5040718;23;19921;-77
2023/04/04 10:17:39;;;;;;;;;;;;;;;5.43;62.83;93609.31;5039845;23;19943;-73
2023/04/04 10:19:41;;;;;;;;;;;;;;;5.65;62.84;93612.34;5017391;23;19978;-74
2023/04/04 10:21:43;;;;;;;;;;;;;;;5.83;62.55;93617.44;5017240;23;19941;-73
2023/04/04 10:23:45;;;;;;;;;;;;;;;5.58;61.53;93617.34;5017370;23;19925;-73
2023/04/04 10:25:48;;;;;;;;;;;;;;;5.60;62.52;93617.22;5067037;23;20252;-73
2023/04/04 10:27:49;;;;;;;;;;;;;;;5.61;62.49;93622.22;5040767;23;19921;-75
2023/04/04 10:29:52;;;;;;;;;;;;;;;5.60;61.58;93615.41;5066258;23;20581;-74
2023/04/04 10:31:59;;;;;;;;;;;;;;;5.71;62.33;93622.13;5067432;23;19922;-76
2023/04/04 10:34:12;;;;;;;;;;;;;;;5.90;61.48;93621.88;5066830;23;20132;-76
2023/04/04 10:36:15;;;;;;;;;;;;;;;5.90;61.95;93624.47;5066555;23;19956;-76
2023/04/04 10:38:17;;;;;;;;;;;;;;;6.06;61.13;93626.34;5066624;23;19940;-74
2023/04/04 10:40:19;;;;;;;;;;;;;;;5.92;60.60;93639.91;5040108;23;19921;-73
2023/04/04 10:42:20;;;;;;;;;;;;;;;5.82;60.68;93642.63;5066337;23;19921;-76
2023/04/04 10:44:30;;;;;;;;;;;;;;;5.72;61.08;93640.16;5039601;23;19925;-74